Terminal Aerodrome Forecast
Issued by NWS Tampa Bay Area, FL

Current Version | Previous Version | Text Only | Print | Product List | Glossary On
Versions: 1 2 3 4 5 6 7 8 9 10 11 12 13
000
FTUS42 KTBW 260500
TAFSRQ
TAF
KSRQ 260520Z 2606/2706 VRB04KT P6SM SCT025 SCT250
     FM260800 VRB04KT P6SM VCSH SCT025 SCT250
     FM261200 24004KT P6SM VCTS SCT025CB SCT250
     FM261800 25008KT P6SM SCT035 BKN250=

USA.gov is the U.S. government's official web portal to all federal, state and local government web resources and services.